sensor_id;sensor_type;location;lat;lon;timestamp;P1;durP1;ratioP1;P2;durP2;ratioP2
48006;SDS011;33771;48.180;11.400;2023-02-01T00:02:01;9.13;;;4.80;;
48006;SDS011;33771;48.180;11.400;2023-02-01T00:04:26;5.83;;;4.13;;
48006;SDS011;33771;48.180;11.400;2023-02-01T00:06:52;7.93;;;3.93;;
48006;SDS011;33771;48.180;11.400;2023-02-01T00:09:18;8.03;;;4.00;;
48006;SDS011;33771;48.180;11.400;2023-02-01T00:11:44;7.03;;;4.17;;
48006;SDS011;33771;48.180;11.400;2023-02-01T00:14:09;6.93;;;3.97;;
48006;SDS011;33771;48.180;11.400;2023-02-01T00:16:35;6.77;;;4.37;;
48006;SDS011;33771;48.180;11.400;2023-02-01T00:19:02;6.27;;;3.70;;
48006;SDS011;33771;48.180;11.400;2023-02-01T00:21:30;6.40;;;4.10;;
48006;SDS011;33771;48.180;11.400;2023-02-01T00:23:56;5.53;;;3.80;;
48006;SDS011;33771;48.180;11.400;2023-02-01T00:26:25;7.03;;;4.10;;
48006;SDS011;33771;48.180;11.400;2023-02-01T00:28:56;7.97;;;4.17;;
48006;SDS011;33771;48.180;11.400;2023-02-01T00:31:22;5.87;;;4.17;;
48006;SDS011;33771;48.180;11.400;2023-02-01T00:33:47;6.40;;;3.87;;
48006;SDS011;33771;48.180;11.400;2023-02-01T00:36:13;6.20;;;4.10;;
48006;SDS011;33771;48.180;11.400;2023-02-01T00:38:39;8.97;;;4.33;;
48006;SDS011;33771;48.180;11.400;2023-02-01T00:41:15;11.60;;;5.40;;
48006;SDS011;33771;48.180;11.400;2023-02-01T00:43:43;8.20;;;4.67;;
48006;SDS011;33771;48.180;11.400;2023-02-01T00:46:09;7.50;;;4.80;;
48006;SDS011;33771;48.180;11.400;2023-02-01T00:48:36;7.23;;;5.10;;
48006;SDS011;33771;48.180;11.400;2023-02-01T00:51:08;9.07;;;5.50;;
48006;SDS011;33771;48.180;11.400;2023-02-01T00:53:35;7.33;;;5.20;;
48006;SDS011;33771;48.180;11.400;2023-02-01T00:56:02;7.03;;;5.27;;
48006;SDS011;33771;48.180;11.400;2023-02-01T00:58:28;10.47;;;6.23;;
48006;SDS011;33771;48.180;11.400;2023-02-01T01:01:01;7.23;;;5.17;;
48006;SDS011;33771;48.180;11.400;2023-02-01T01:03:48;8.57;;;5.63;;
48006;SDS011;33771;48.180;11.400;2023-02-01T01:06:29;7.93;;;5.43;;
48006;SDS011;33771;48.180;11.400;2023-02-01T01:08:58;9.33;;;5.80;;
48006;SDS011;33771;48.180;11.400;2023-02-01T01:11:29;11.17;;;5.87;;
48006;SDS011;33771;48.180;11.400;2023-02-01T01:13:56;7.80;;;5.40;;
48006;SDS011;33771;48.180;11.400;2023-02-01T01:16:23;10.50;;;6.53;;
48006;SDS011;33771;48.180;11.400;2023-02-01T01:18:50;11.17;;;6.00;;
48006;SDS011;33771;48.180;11.400;2023-02-01T01:21:16;9.43;;;5.33;;
48006;SDS011;33771;48.180;11.400;2023-02-01T01:23:43;9.70;;;6.10;;
48006;SDS011;33771;48.180;11.400;2023-02-01T01:26:10;8.63;;;5.40;;
48006;SDS011;33771;48.180;11.400;2023-02-01T01:28:40;10.60;;;6.23;;
48006;SDS011;33771;48.180;11.400;2023-02-01T01:31:13;10.03;;;6.20;;
48006;SDS011;33771;48.180;11.400;2023-02-01T01:33:40;9.63;;;5.90;;
48006;SDS011;33771;48.180;11.400;2023-02-01T01:36:06;9.77;;;6.83;;
48006;SDS011;33771;48.180;11.400;2023-02-01T01:38:38;9.87;;;6.10;;
48006;SDS011;33771;48.180;11.400;2023-02-01T01:41:05;8.83;;;6.27;;
48006;SDS011;33771;48.180;11.400;2023-02-01T01:43:51;10.37;;;7.33;;
48006;SDS011;33771;48.180;11.400;2023-02-01T01:46:21;9.90;;;6.50;;
48006;SDS011;33771;48.180;11.400;2023-02-01T01:48:50;11.50;;;6.73;;
48006;SDS011;33771;48.180;11.400;2023-02-01T01:51:35;10.63;;;6.43;;
48006;SDS011;33771;48.180;11.400;2023-02-01T01:56:51;12.53;;;7.30;;
48006;SDS011;33771;48.180;11.400;2023-02-01T01:59:22;10.50;;;7.37;;
48006;SDS011;33771;48.180;11.400;2023-02-01T02:01:49;11.20;;;6.83;;
48006;SDS011;33771;48.180;11.400;2023-02-01T02:04:15;11.20;;;7.40;;
48006;SDS011;33771;48.180;11.400;2023-02-01T02:06:46;9.23;;;6.83;;
48006;SDS011;33771;48.180;11.400;2023-02-01T02:09:20;12.17;;;6.83;;
48006;SDS011;33771;48.180;11.400;2023-02-01T02:11:46;10.43;;;7.37;;
48006;SDS011;33771;48.180;11.400;2023-02-01T02:14:12;11.30;;;6.97;;
48006;SDS011;33771;48.180;11.400;2023-02-01T02:35:34;11.63;;;7.00;;
48006;SDS011;33771;48.180;11.400;2023-02-01T02:41:15;11.40;;;7.00;;
48006;SDS011;33771;48.180;11.400;2023-02-01T02:44:11;9.00;;;5.50;;
48006;SDS011;33771;48.180;11.400;2023-02-01T02:47:11;12.53;;;6.47;;
48006;SDS011;33771;48.180;11.400;2023-02-01T02:49:52;10.13;;;6.20;;
48006;SDS011;33771;48.180;11.400;2023-02-01T02:52:41;7.80;;;5.73;;
48006;SDS011;33771;48.180;11.400;2023-02-01T02:55:32;8.77;;;5.10;;
48006;SDS011;33771;48.180;11.400;2023-02-01T02:58:00;11.50;;;6.20;;
48006;SDS011;33771;48.180;11.400;2023-02-01T03:00:47;10.33;;;5.20;;
48006;SDS011;33771;48.180;11.400;2023-02-01T03:03:35;7.95;;;5.07;;
48006;SDS011;33771;48.180;11.400;2023-02-01T03:06:21;9.10;;;5.43;;
48006;SDS011;33771;48.180;11.400;2023-02-01T03:08:49;8.53;;;5.63;;
48006;SDS011;33771;48.180;11.400;2023-02-01T03:11:18;10.43;;;6.13;;
48006;SDS011;33771;48.180;11.400;2023-02-01T03:13:52;9.83;;;5.37;;
48006;SDS011;33771;48.180;11.400;2023-02-01T03:16:26;9.07;;;5.80;;
48006;SDS011;33771;48.180;11.400;2023-02-01T03:21:46;7.97;;;5.13;;
48006;SDS011;33771;48.180;11.400;2023-02-01T03:24:23;6.60;;;4.60;;
48006;SDS011;33771;48.180;11.400;2023-02-01T03:26:58;11.00;;;5.10;;
48006;SDS011;33771;48.180;11.400;2023-02-01T03:29:32;8.13;;;5.47;;
48006;SDS011;33771;48.180;11.400;2023-02-01T03:32:05;10.18;;;5.57;;
48006;SDS011;33771;48.180;11.400;2023-02-01T03:34:30;8.63;;;5.23;;
48006;SDS011;33771;48.180;11.400;2023-02-01T03:37:01;11.57;;;6.50;;
48006;SDS011;33771;48.180;11.400;2023-02-01T03:39:39;8.50;;;5.03;;
48006;SDS011;33771;48.180;11.400;2023-02-01T03:42:16;7.47;;;5.50;;
48006;SDS011;33771;48.180;11.400;2023-02-01T03:47:11;8.37;;;5.23;;
48006;SDS011;33771;48.180;11.400;2023-02-01T03:49:45;7.13;;;4.77;;
48006;SDS011;33771;48.180;11.400;2023-02-01T03:52:15;8.33;;;4.77;;
48006;SDS011;33771;48.180;11.400;2023-02-01T03:54:45;8.30;;;5.60;;
48006;SDS011;33771;48.180;11.400;2023-02-01T03:57:13;8.37;;;5.10;;
48006;SDS011;33771;48.180;11.400;2023-02-01T03:59:42;9.70;;;5.80;;
48006;SDS011;33771;48.180;11.400;2023-02-01T04:02:09;7.67;;;4.60;;
48006;SDS011;33771;48.180;11.400;2023-02-01T04:04:35;11.20;;;4.73;;
48006;SDS011;33771;48.180;11.400;2023-02-01T04:07:01;8.37;;;5.23;;
48006;SDS011;33771;48.180;11.400;2023-02-01T04:09:27;8.13;;;4.97;;
48006;SDS011;33771;48.180;11.400;2023-02-01T04:11:53;8.30;;;4.93;;
48006;SDS011;33771;48.180;11.400;2023-02-01T04:14:19;7.83;;;5.10;;
48006;SDS011;33771;48.180;11.400;2023-02-01T04:16:44;7.50;;;4.63;;
48006;SDS011;33771;48.180;11.400;2023-02-01T04:19:10;8.07;;;5.03;;
48006;SDS011;33771;48.180;11.400;2023-02-01T04:21:36;8.43;;;5.17;;
48006;SDS011;33771;48.180;11.400;2023-02-01T04:24:02;11.67;;;5.03;;
48006;SDS011;33771;48.180;11.400;2023-02-01T04:26:27;6.87;;;4.83;;
48006;SDS011;33771;48.180;11.400;2023-02-01T04:28:53;10.60;;;5.03;;
48006;SDS011;33771;48.180;11.400;2023-02-01T04:31:19;9.50;;;5.27;;
48006;SDS011;33771;48.180;11.400;2023-02-01T04:33:54;7.23;;;5.20;;
48006;SDS011;33771;48.180;11.400;2023-02-01T04:36:22;11.07;;;5.47;;
48006;SDS011;33771;48.180;11.400;2023-02-01T04:38:48;7.67;;;4.90;;
48006;SDS011;33771;48.180;11.400;2023-02-01T04:41:15;7.23;;;5.23;;
48006;SDS011;33771;48.180;11.400;2023-02-01T04:43:43;8.27;;;5.47;;
48006;SDS011;33771;48.180;11.400;2023-02-01T04:46:12;8.13;;;5.73;;
48006;SDS011;33771;48.180;11.400;2023-02-01T04:48:38;10.97;;;5.63;;
48006;SDS011;33771;48.180;11.400;2023-02-01T04:51:03;11.87;;;5.53;;
48006;SDS011;33771;48.180;11.400;2023-02-01T04:53:29;8.80;;;5.27;;
48006;SDS011;33771;48.180;11.400;2023-02-01T04:55:55;9.20;;;5.33;;
48006;SDS011;33771;48.180;11.400;2023-02-01T04:58:21;7.97;;;5.43;;
48006;SDS011;33771;48.180;11.400;2023-02-01T05:00:47;8.50;;;5.83;;
48006;SDS011;33771;48.180;11.400;2023-02-01T05:03:12;8.63;;;5.50;;
48006;SDS011;33771;48.180;11.400;2023-02-01T05:05:38;9.87;;;5.53;;
48006;SDS011;33771;48.180;11.400;2023-02-01T05:08:04;8.47;;;5.63;;
48006;SDS011;33771;48.180;11.400;2023-02-01T05:10:29;7.63;;;5.30;;
48006;SDS011;33771;48.180;11.400;2023-02-01T05:12:55;9.20;;;5.90;;
48006;SDS011;33771;48.180;11.400;2023-02-01T05:15:39;7.77;;;5.00;;
48006;SDS011;33771;48.180;11.400;2023-02-01T05:18:04;9.07;;;5.43;;
48006;SDS011;33771;48.180;11.400;2023-02-01T05:20:30;9.40;;;5.93;;
48006;SDS011;33771;48.180;11.400;2023-02-01T05:22:56;10.20;;;5.77;;
48006;SDS011;33771;48.180;11.400;2023-02-01T05:25:21;8.97;;;5.70;;
48006;SDS011;33771;48.180;11.400;2023-02-01T05:27:47;7.10;;;4.97;;
48006;SDS011;33771;48.180;11.400;2023-02-01T05:30:13;9.77;;;5.30;;
48006;SDS011;33771;48.180;11.400;2023-02-01T05:32:38;7.97;;;5.47;;
48006;SDS011;33771;48.180;11.400;2023-02-01T05:35:04;8.93;;;5.27;;
48006;SDS011;33771;48.180;11.400;2023-02-01T05:37:30;10.13;;;6.30;;
48006;SDS011;33771;48.180;11.400;2023-02-01T05:39:55;10.87;;;6.70;;
48006;SDS011;33771;48.180;11.400;2023-02-01T05:42:21;11.43;;;6.40;;
48006;SDS011;33771;48.180;11.400;2023-02-01T05:44:46;9.90;;;5.57;;
48006;SDS011;33771;48.180;11.400;2023-02-01T05:47:12;8.00;;;5.80;;
48006;SDS011;33771;48.180;11.400;2023-02-01T05:49:38;7.87;;;5.43;;
48006;SDS011;33771;48.180;11.400;2023-02-01T05:52:03;8.13;;;5.90;;
48006;SDS011;33771;48.180;11.400;2023-02-01T05:54:29;10.50;;;6.07;;
48006;SDS011;33771;48.180;11.400;2023-02-01T05:56:55;7.57;;;5.43;;
48006;SDS011;33771;48.180;11.400;2023-02-01T05:59:21;8.73;;;5.77;;
48006;SDS011;33771;48.180;11.400;2023-02-01T06:01:46;8.93;;;5.73;;
48006;SDS011;33771;48.180;11.400;2023-02-01T06:04:12;9.47;;;5.20;;
48006;SDS011;33771;48.180;11.400;2023-02-01T06:06:37;7.67;;;5.57;;
48006;SDS011;33771;48.180;11.400;2023-02-01T06:09:03;8.33;;;5.50;;
48006;SDS011;33771;48.180;11.400;2023-02-01T06:11:29;8.50;;;5.50;;
48006;SDS011;33771;48.180;11.400;2023-02-01T06:13:54;10.53;;;5.87;;
48006;SDS011;33771;48.180;11.400;2023-02-01T06:16:20;9.70;;;6.27;;
48006;SDS011;33771;48.180;11.400;2023-02-01T06:18:47;9.70;;;5.37;;
48006;SDS011;33771;48.180;11.400;2023-02-01T06:21:12;8.17;;;4.90;;
48006;SDS011;33771;48.180;11.400;2023-02-01T06:23:48;7.20;;;5.20;;
48006;SDS011;33771;48.180;11.400;2023-02-01T06:26:17;9.63;;;5.77;;
48006;SDS011;33771;48.180;11.400;2023-02-01T06:28:44;7.87;;;5.50;;
48006;SDS011;33771;48.180;11.400;2023-02-01T06:31:09;9.17;;;6.43;;
48006;SDS011;33771;48.180;11.400;2023-02-01T06:33:35;8.40;;;5.77;;
48006;SDS011;33771;48.180;11.400;2023-02-01T06:36:02;8.10;;;5.77;;
48006;SDS011;33771;48.180;11.400;2023-02-01T06:38:29;9.43;;;5.90;;
48006;SDS011;33771;48.180;11.400;2023-02-01T06:40:56;8.53;;;5.87;;
48006;SDS011;33771;48.180;11.400;2023-02-01T06:43:23;7.73;;;5.43;;
48006;SDS011;33771;48.180;11.400;2023-02-01T06:45:50;8.73;;;5.60;;
48006;SDS011;33771;48.180;11.400;2023-02-01T06:48:16;10.03;;;6.03;;
48006;SDS011;33771;48.180;11.400;2023-02-01T06:50:42;7.50;;;5.20;;
48006;SDS011;33771;48.180;11.400;2023-02-01T06:53:08;12.03;;;5.40;;
48006;SDS011;33771;48.180;11.400;2023-02-01T06:55:56;7.30;;;5.03;;
48006;SDS011;33771;48.180;11.400;2023-02-01T06:58:29;6.97;;;4.80;;
48006;SDS011;33771;48.180;11.400;2023-02-01T07:00:56;6.73;;;4.83;;
48006;SDS011;33771;48.180;11.400;2023-02-01T07:03:22;8.47;;;5.97;;
48006;SDS011;33771;48.180;11.400;2023-02-01T07:05:48;10.53;;;4.83;;
48006;SDS011;33771;48.180;11.400;2023-02-01T07:08:13;7.53;;;4.90;;
48006;SDS011;33771;48.180;11.400;2023-02-01T07:10:39;10.53;;;5.07;;
48006;SDS011;33771;48.180;11.400;2023-02-01T07:13:12;8.37;;;5.87;;
48006;SDS011;33771;48.180;11.400;2023-02-01T07:15:40;7.13;;;4.50;;
48006;SDS011;33771;48.180;11.400;2023-02-01T07:18:06;8.27;;;4.27;;
48006;SDS011;33771;48.180;11.400;2023-02-01T07:20:34;7.63;;;4.63;;
48006;SDS011;33771;48.180;11.400;2023-02-01T07:23:02;6.83;;;4.07;;
48006;SDS011;33771;48.180;11.400;2023-02-01T07:25:27;8.33;;;4.53;;
48006;SDS011;33771;48.180;11.400;2023-02-01T07:27:53;6.50;;;4.20;;
48006;SDS011;33771;48.180;11.400;2023-02-01T07:30:18;5.93;;;4.07;;
48006;SDS011;33771;48.180;11.400;2023-02-01T07:32:46;6.13;;;3.93;;
48006;SDS011;33771;48.180;11.400;2023-02-01T07:35:14;7.90;;;3.97;;
48006;SDS011;33771;48.180;11.400;2023-02-01T07:37:40;5.43;;;3.87;;
48006;SDS011;33771;48.180;11.400;2023-02-01T07:40:06;8.07;;;3.97;;
48006;SDS011;33771;48.180;11.400;2023-02-01T07:42:31;7.07;;;3.50;;
48006;SDS011;33771;48.180;11.400;2023-02-01T07:44:57;6.53;;;3.60;;
48006;SDS011;33771;48.180;11.400;2023-02-01T07:47:23;5.80;;;4.07;;
48006;SDS011;33771;48.180;11.400;2023-02-01T07:49:48;5.70;;;3.60;;
48006;SDS011;33771;48.180;11.400;2023-02-01T07:52:14;6.37;;;3.57;;
48006;SDS011;33771;48.180;11.400;2023-02-01T07:54:42;7.57;;;3.80;;
48006;SDS011;33771;48.180;11.400;2023-02-01T07:57:08;6.43;;;3.50;;
48006;SDS011;33771;48.180;11.400;2023-02-01T07:59:36;4.57;;;2.80;;
48006;SDS011;33771;48.180;11.400;2023-02-01T08:02:21;5.00;;;3.13;;
48006;SDS011;33771;48.180;11.400;2023-02-01T08:04:47;4.93;;;3.17;;
48006;SDS011;33771;48.180;11.400;2023-02-01T08:07:13;4.47;;;3.13;;
48006;SDS011;33771;48.180;11.400;2023-02-01T08:09:38;3.97;;;3.03;;
48006;SDS011;33771;48.180;11.400;2023-02-01T08:12:04;5.80;;;3.73;;
48006;SDS011;33771;48.180;11.400;2023-02-01T08:14:29;10.57;;;4.13;;
48006;SDS011;33771;48.180;11.400;2023-02-01T08:16:55;4.17;;;2.93;;
48006;SDS011;33771;48.180;11.400;2023-02-01T08:19:20;5.20;;;3.40;;
48006;SDS011;33771;48.180;11.400;2023-02-01T08:21:46;4.63;;;2.77;;
48006;SDS011;33771;48.180;11.400;2023-02-01T08:24:13;4.50;;;3.10;;
48006;SDS011;33771;48.180;11.400;2023-02-01T08:26:39;4.70;;;2.67;;
48006;SDS011;33771;48.180;11.400;2023-02-01T08:29:05;5.30;;;3.57;;
48006;SDS011;33771;48.180;11.400;2023-02-01T08:31:32;4.97;;;3.17;;
48006;SDS011;33771;48.180;11.400;2023-02-01T08:33:58;5.33;;;2.90;;
48006;SDS011;33771;48.180;11.400;2023-02-01T08:36:26;4.13;;;2.57;;
48006;SDS011;33771;48.180;11.400;2023-02-01T08:38:53;3.53;;;2.73;;
48006;SDS011;33771;48.180;11.400;2023-02-01T08:41:20;5.23;;;2.90;;
48006;SDS011;33771;48.180;11.400;2023-02-01T08:43:50;5.80;;;3.13;;
48006;SDS011;33771;48.180;11.400;2023-02-01T08:46:16;5.70;;;2.63;;
48006;SDS011;33771;48.180;11.400;2023-02-01T08:48:41;5.23;;;2.77;;
48006;SDS011;33771;48.180;11.400;2023-02-01T08:51:08;5.47;;;3.00;;
48006;SDS011;33771;48.180;11.400;2023-02-01T08:53:36;3.67;;;2.67;;
48006;SDS011;33771;48.180;11.400;2023-02-01T08:56:05;5.37;;;2.93;;
48006;SDS011;33771;48.180;11.400;2023-02-01T08:58:31;4.67;;;2.97;;
48006;SDS011;33771;48.180;11.400;2023-02-01T09:01:01;4.63;;;2.83;;
48006;SDS011;33771;48.180;11.400;2023-02-01T09:03:31;8.53;;;2.87;;
48006;SDS011;33771;48.180;11.400;2023-02-01T09:06:00;6.03;;;2.80;;
48006;SDS011;33771;48.180;11.400;2023-02-01T09:08:27;5.43;;;2.30;;
48006;SDS011;33771;48.180;11.400;2023-02-01T09:10:53;6.53;;;2.87;;
48006;SDS011;33771;48.180;11.400;2023-02-01T09:13:18;6.30;;;2.83;;
48006;SDS011;33771;48.180;11.400;2023-02-01T09:15:44;5.90;;;2.80;;
48006;SDS011;33771;48.180;11.400;2023-02-01T09:18:10;4.37;;;2.80;;
48006;SDS011;33771;48.180;11.400;2023-02-01T09:20:36;4.20;;;2.80;;
48006;SDS011;33771;48.180;11.400;2023-02-01T09:23:02;3.93;;;2.40;;
48006;SDS011;33771;48.180;11.400;2023-02-01T09:25:27;5.53;;;2.87;;
48006;SDS011;33771;48.180;11.400;2023-02-01T09:27:53;4.73;;;2.93;;
48006;SDS011;33771;48.180;11.400;2023-02-01T09:30:18;4.87;;;2.67;;
48006;SDS011;33771;48.180;11.400;2023-02-01T09:32:44;5.20;;;2.77;;
48006;SDS011;33771;48.180;11.400;2023-02-01T09:35:10;4.60;;;2.53;;
48006;SDS011;33771;48.180;11.400;2023-02-01T09:37:35;8.67;;;3.37;;
48006;SDS011;33771;48.180;11.400;2023-02-01T09:40:02;5.37;;;3.00;;
48006;SDS011;33771;48.180;11.400;2023-02-01T09:45:35;4.30;;;2.90;;
48006;SDS011;33771;48.180;11.400;2023-02-01T09:50:32;5.37;;;2.80;;
48006;SDS011;33771;48.180;11.400;2023-02-01T09:55:50;6.27;;;2.87;;
48006;SDS011;33771;48.180;11.400;2023-02-01T09:58:25;7.67;;;3.30;;
48006;SDS011;33771;48.180;11.400;2023-02-01T10:00:58;5.03;;;3.00;;
48006;SDS011;33771;48.180;11.400;2023-02-01T10:03:29;6.53;;;3.10;;
48006;SDS011;33771;48.180;11.400;2023-02-01T10:14:29;6.97;;;3.70;;
48006;SDS011;33771;48.180;11.400;2023-02-01T10:20:16;7.27;;;3.23;;
48006;SDS011;33771;48.180;11.400;2023-02-01T10:22:45;7.30;;;3.20;;
48006;SDS011;33771;48.180;11.400;2023-02-01T10:27:42;6.17;;;3.10;;
48006;SDS011;33771;48.180;11.400;2023-02-01T10:32:38;7.90;;;3.00;;
48006;SDS011;33771;48.180;11.400;2023-02-01T10:35:12;5.43;;;3.07;;
48006;SDS011;33771;48.180;11.400;2023-02-01T10:37:41;5.65;;;3.00;;
48006;SDS011;33771;48.180;11.400;2023-02-01T10:40:22;5.27;;;3.07;;
48006;SDS011;33771;48.180;11.400;2023-02-01T10:43:08;6.37;;;2.60;;
48006;SDS011;33771;48.180;11.400;2023-02-01T10:45:34;5.73;;;2.87;;
48006;SDS011;33771;48.180;11.400;2023-02-01T10:48:08;4.90;;;2.97;;
48006;SDS011;33771;48.180;11.400;2023-02-01T10:50:35;6.50;;;3.00;;
48006;SDS011;33771;48.180;11.400;2023-02-01T10:53:11;4.60;;;2.80;;
48006;SDS011;33771;48.180;11.400;2023-02-01T10:55:54;6.00;;;2.90;;
48006;SDS011;33771;48.180;11.400;2023-02-01T10:58:25;4.63;;;2.87;;
48006;SDS011;33771;48.180;11.400;2023-02-01T11:00:54;6.60;;;3.17;;
48006;SDS011;33771;48.180;11.400;2023-02-01T11:03:41;4.17;;;3.20;;
48006;SDS011;33771;48.180;11.400;2023-02-01T11:08:57;8.07;;;3.37;;
48006;SDS011;33771;48.180;11.400;2023-02-01T11:11:24;6.60;;;3.63;;
48006;SDS011;33771;48.180;11.400;2023-02-01T11:13:52;7.70;;;3.87;;
48006;SDS011;33771;48.180;11.400;2023-02-01T11:16:33;7.33;;;3.40;;
48006;SDS011;33771;48.180;11.400;2023-02-01T11:19:01;5.38;;;3.20;;
48006;SDS011;33771;48.180;11.400;2023-02-01T11:21:27;5.93;;;3.30;;
48006;SDS011;33771;48.180;11.400;2023-02-01T11:23:52;8.70;;;3.97;;
48006;SDS011;33771;48.180;11.400;2023-02-01T11:26:25;9.43;;;3.77;;
48006;SDS011;33771;48.180;11.400;2023-02-01T11:31:26;10.33;;;4.00;;
48006;SDS011;33771;48.180;11.400;2023-02-01T11:33:54;5.20;;;3.20;;
48006;SDS011;33771;48.180;11.400;2023-02-01T11:36:27;7.70;;;3.83;;
48006;SDS011;33771;48.180;11.400;2023-02-01T11:41:44;6.03;;;3.20;;
48006;SDS011;33771;48.180;11.400;2023-02-01T11:44:38;5.97;;;4.03;;
48006;SDS011;33771;48.180;11.400;2023-02-01T11:47:18;5.80;;;3.07;;
48006;SDS011;33771;48.180;11.400;2023-02-01T11:49:47;7.60;;;3.70;;
48006;SDS011;33771;48.180;11.400;2023-02-01T11:55:29;9.50;;;4.70;;
48006;SDS011;33771;48.180;11.400;2023-02-01T12:04:05;8.93;;;4.43;;
48006;SDS011;33771;48.180;11.400;2023-02-01T12:12:16;8.73;;;4.50;;
48006;SDS011;33771;48.180;11.400;2023-02-01T12:27:59;5.67;;;3.90;;
48006;SDS011;33771;48.180;11.400;2023-02-01T12:33:55;11.13;;;4.47;;
48006;SDS011;33771;48.180;11.400;2023-02-01T12:36:33;7.43;;;3.97;;
48006;SDS011;33771;48.180;11.400;2023-02-01T12:41:50;10.30;;;3.67;;
48006;SDS011;33771;48.180;11.400;2023-02-01T12:44:35;10.53;;;3.80;;
48006;SDS011;33771;48.180;11.400;2023-02-01T12:50:18;5.97;;;3.40;;
48006;SDS011;33771;48.180;11.400;2023-02-01T12:52:51;12.17;;;3.80;;
48006;SDS011;33771;48.180;11.400;2023-02-01T12:58:13;8.23;;;2.97;;
48006;SDS011;33771;48.180;11.400;2023-02-01T13:00:44;7.60;;;3.17;;
48006;SDS011;33771;48.180;11.400;2023-02-01T13:11:06;9.10;;;3.50;;
48006;SDS011;33771;48.180;11.400;2023-02-01T13:13:49;7.00;;;3.77;;
48006;SDS011;33771;48.180;11.400;2023-02-01T13:16:57;6.10;;;3.70;;
48006;SDS011;33771;48.180;11.400;2023-02-01T13:25:26;7.50;;;3.93;;
48006;SDS011;33771;48.180;11.400;2023-02-01T13:28:04;6.70;;;3.53;;
48006;SDS011;33771;48.180;11.400;2023-02-01T13:30:38;7.37;;;4.37;;
48006;SDS011;33771;48.180;11.400;2023-02-01T13:36:01;6.37;;;3.43;;
48006;SDS011;33771;48.180;11.400;2023-02-01T13:46:54;7.37;;;3.70;;
48006;SDS011;33771;48.180;11.400;2023-02-01T13:49:23;6.77;;;3.77;;
48006;SDS011;33771;48.180;11.400;2023-02-01T13:51:53;9.13;;;4.53;;
48006;SDS011;33771;48.180;11.400;2023-02-01T13:54:34;14.03;;;4.90;;
48006;SDS011;33771;48.180;11.400;2023-02-01T13:57:03;8.23;;;4.27;;
48006;SDS011;33771;48.180;11.400;2023-02-01T14:05:09;5.83;;;3.10;;
48006;SDS011;33771;48.180;11.400;2023-02-01T14:13:12;6.23;;;3.40;;
48006;SDS011;33771;48.180;11.400;2023-02-01T14:21:27;7.27;;;3.90;;
48006;SDS011;33771;48.180;11.400;2023-02-01T14:24:02;5.80;;;3.50;;
48006;SDS011;33771;48.180;11.400;2023-02-01T14:26:43;6.10;;;3.65;;
48006;SDS011;33771;48.180;11.400;2023-02-01T14:31:52;5.50;;;3.33;;
48006;SDS011;33771;48.180;11.400;2023-02-01T14:44:47;7.57;;;2.80;;
48006;SDS011;33771;48.180;11.400;2023-02-01T14:52:23;9.52;;;3.92;;
48006;SDS011;33771;48.180;11.400;2023-02-01T14:55:06;9.13;;;4.80;;
48006;SDS011;33771;48.180;11.400;2023-02-01T14:57:43;8.57;;;3.50;;
48006;SDS011;33771;48.180;11.400;2023-02-01T15:00:17;6.07;;;3.27;;
48006;SDS011;33771;48.180;11.400;2023-02-01T15:02:50;9.50;;;4.20;;
48006;SDS011;33771;48.180;11.400;2023-02-01T15:05:25;12.10;;;5.40;;
48006;SDS011;33771;48.180;11.400;2023-02-01T15:07:59;9.83;;;3.63;;
48006;SDS011;33771;48.180;11.400;2023-02-01T15:10:30;6.63;;;2.87;;
48006;SDS011;33771;48.180;11.400;2023-02-01T15:12:57;8.10;;;2.97;;
48006;SDS011;33771;48.180;11.400;2023-02-01T15:15:23;8.60;;;2.73;;
48006;SDS011;33771;48.180;11.400;2023-02-01T15:17:56;6.70;;;2.87;;
48006;SDS011;33771;48.180;11.400;2023-02-01T15:25:28;4.90;;;2.60;;
48006;SDS011;33771;48.180;11.400;2023-02-01T15:27:55;7.27;;;3.27;;
48006;SDS011;33771;48.180;11.400;2023-02-01T15:30:29;6.27;;;2.97;;
48006;SDS011;33771;48.180;11.400;2023-02-01T15:33:13;8.97;;;2.87;;
48006;SDS011;33771;48.180;11.400;2023-02-01T15:35:41;10.50;;;3.23;;
48006;SDS011;33771;48.180;11.400;2023-02-01T15:46:22;6.83;;;2.43;;
48006;SDS011;33771;48.180;11.400;2023-02-01T15:48:54;7.10;;;2.33;;
48006;SDS011;33771;48.180;11.400;2023-02-01T15:51:22;6.70;;;2.47;;
48006;SDS011;33771;48.180;11.400;2023-02-01T15:54:00;5.63;;;1.97;;
48006;SDS011;33771;48.180;11.400;2023-02-01T15:56:32;9.87;;;2.73;;
48006;SDS011;33771;48.180;11.400;2023-02-01T15:59:06;6.80;;;2.37;;
48006;SDS011;33771;48.180;11.400;2023-02-01T16:01:40;4.63;;;2.20;;
48006;SDS011;33771;48.180;11.400;2023-02-01T16:04:12;6.00;;;1.90;;
48006;SDS011;33771;48.180;11.400;2023-02-01T16:06:48;9.67;;;2.53;;
48006;SDS011;33771;48.180;11.400;2023-02-01T16:09:16;6.20;;;2.43;;
48006;SDS011;33771;48.180;11.400;2023-02-01T16:14:21;9.90;;;2.10;;
48006;SDS011;33771;48.180;11.400;2023-02-01T16:16:49;8.40;;;3.13;;
48006;SDS011;33771;48.180;11.400;2023-02-01T16:19:15;8.70;;;2.17;;
48006;SDS011;33771;48.180;11.400;2023-02-01T16:21:41;9.07;;;2.77;;
48006;SDS011;33771;48.180;11.400;2023-02-01T16:24:07;6.70;;;2.40;;
48006;SDS011;33771;48.180;11.400;2023-02-01T16:26:33;6.27;;;2.27;;
48006;SDS011;33771;48.180;11.400;2023-02-01T16:28:59;3.70;;;2.17;;
48006;SDS011;33771;48.180;11.400;2023-02-01T16:31:28;9.53;;;2.27;;
48006;SDS011;33771;48.180;11.400;2023-02-01T16:33:56;8.23;;;2.17;;
48006;SDS011;33771;48.180;11.400;2023-02-01T16:36:22;6.77;;;2.20;;
48006;SDS011;33771;48.180;11.400;2023-02-01T16:38:53;7.17;;;2.40;;
48006;SDS011;33771;48.180;11.400;2023-02-01T16:41:20;5.63;;;2.20;;
48006;SDS011;33771;48.180;11.400;2023-02-01T16:43:51;9.23;;;2.60;;
48006;SDS011;33771;48.180;11.400;2023-02-01T16:46:19;13.77;;;4.70;;
48006;SDS011;33771;48.180;11.400;2023-02-01T16:48:52;8.50;;;2.60;;
48006;SDS011;33771;48.180;11.400;2023-02-01T16:51:22;10.93;;;2.80;;
48006;SDS011;33771;48.180;11.400;2023-02-01T16:53:50;8.00;;;2.80;;
48006;SDS011;33771;48.180;11.400;2023-02-01T16:58:43;8.87;;;2.70;;
48006;SDS011;33771;48.180;11.400;2023-02-01T17:01:12;9.20;;;2.57;;
48006;SDS011;33771;48.180;11.400;2023-02-01T17:03:42;7.00;;;2.40;;
48006;SDS011;33771;48.180;11.400;2023-02-01T17:06:11;11.67;;;2.67;;
48006;SDS011;33771;48.180;11.400;2023-02-01T17:08:44;9.33;;;3.30;;
48006;SDS011;33771;48.180;11.400;2023-02-01T17:11:12;9.03;;;2.90;;
48006;SDS011;33771;48.180;11.400;2023-02-01T17:13:38;8.47;;;3.47;;
48006;SDS011;33771;48.180;11.400;2023-02-01T17:16:10;8.03;;;2.60;;
48006;SDS011;33771;48.180;11.400;2023-02-01T17:18:51;6.77;;;3.00;;
48006;SDS011;33771;48.180;11.400;2023-02-01T17:21:30;13.23;;;3.03;;
48006;SDS011;33771;48.180;11.400;2023-02-01T17:24:03;8.43;;;3.03;;
48006;SDS011;33771;48.180;11.400;2023-02-01T17:26:28;11.20;;;2.83;;
48006;SDS011;33771;48.180;11.400;2023-02-01T17:28:54;10.67;;;2.60;;
48006;SDS011;33771;48.180;11.400;2023-02-01T17:31:20;7.93;;;2.90;;
48006;SDS011;33771;48.180;11.400;2023-02-01T17:33:45;10.20;;;3.80;;
48006;SDS011;33771;48.180;11.400;2023-02-01T17:36:12;11.40;;;3.13;;
48006;SDS011;33771;48.180;11.400;2023-02-01T17:38:39;9.50;;;2.70;;
48006;SDS011;33771;48.180;11.400;2023-02-01T17:41:05;8.83;;;2.60;;
48006;SDS011;33771;48.180;11.400;2023-02-01T17:43:31;9.93;;;3.13;;
48006;SDS011;33771;48.180;11.400;2023-02-01T17:45:57;6.80;;;2.47;;
48006;SDS011;33771;48.180;11.400;2023-02-01T17:48:27;12.13;;;2.53;;
48006;SDS011;33771;48.180;11.400;2023-02-01T17:50:53;8.23;;;2.47;;